Time;durP1;ratioP1;P1;durP2;ratioP2;P2;SDS_P1;SDS_P2;PMS_P1;PMS_P2;Temp;Humidity;BMP_temperature;BMP_pressure;BME280_temperature;BME280_humidity;BME280_pressure;Samples;Min_cycle;Max_cycle;Signal;HPM_P1;HPM_P2
2021/05/12 00:00:35;;;;;;;4.33;1.90;;;;;;;19.73;55.43;101384.44;1747111;80;21060;-50
2021/05/12 00:03:01;;;;;;;3.17;2.10;;;;;;;19.73;55.21;101392.81;1746612;80;21020;-52
2021/05/12 00:05:27;;;;;;;3.80;2.37;;;;;;;19.70;54.94;101396.94;1742070;80;21587;-48
2021/05/12 00:07:54;;;;;;;3.17;2.33;;;;;;;19.66;54.76;101384.82;1739761;80;21579;-50
2021/05/12 00:10:22;;;;;;;4.83;2.47;;;;;;;19.64;54.66;101386.69;1751304;80;21047;-51
2021/05/12 00:12:48;;;;;;;3.52;1.90;;;;;;;19.61;54.54;101382.41;1743112;80;21079;-52
2021/05/12 00:15:17;;;;;;;3.45;1.80;;;;;;;19.59;54.52;101388.68;1755984;81;21646;-51
2021/05/12 00:17:46;;;;;;;2.50;1.72;;;;;;;19.58;54.49;101377.75;1729127;81;21103;-50
2021/05/12 00:20:18;;;;;;;2.27;1.80;;;;;;;19.59;54.44;101380.76;1724547;81;21108;-47
2021/05/12 00:25:13;;;;;;;3.75;1.90;;;;;;;19.58;54.44;101373.78;1721979;82;21170;-48
2021/05/12 00:27:40;;;;;;;4.83;2.02;;;;;;;19.58;54.39;101372.47;1719926;83;21064;-48
2021/05/12 00:30:09;;;;;;;3.30;2.20;;;;;;;19.55;54.47;101369.96;1695960;83;21041;-52
2021/05/12 00:32:36;;;;;;;3.02;2.08;;;;;;;19.54;54.54;101362.98;1695897;83;21055;-50
2021/05/12 00:35:03;;;;;;;2.08;1.50;;;;;;;19.54;54.69;101362.98;1695961;83;21584;-47
2021/05/12 00:37:29;;;;;;;2.50;1.87;;;;;;;19.54;54.66;101351.94;1696151;83;21045;-49
2021/05/12 00:39:55;;;;;;;2.25;1.95;;;;;;;19.54;54.64;101357.22;1678382;84;21094;-48
2021/05/12 00:42:27;;;;;;;3.55;1.90;;;;;;;19.56;54.67;101357.17;1609147;87;21164;-48
2021/05/12 00:44:54;;;;;;;4.30;2.02;;;;;;;19.57;54.61;101349.63;1602113;89;21110;-47
2021/05/12 00:47:26;;;;;;;5.35;2.30;;;;;;;19.59;54.67;101359.64;1600941;88;21671;-48
2021/05/12 00:49:53;;;;;;;2.65;1.90;;;;;;;19.54;54.84;101353.26;1600786;88;21131;-50
2021/05/12 00:52:19;;;;;;;3.22;1.82;;;;;;;19.53;54.94;101358.63;1633715;84;21035;-50
2021/05/12 00:54:45;;;;;;;2.80;1.98;;;;;;;19.52;55.08;101364.81;1660575;84;21101;-48
2021/05/12 00:57:12;;;;;;;2.85;1.80;;;;;;;19.51;55.11;101355.20;1661250;84;21059;-52
2021/05/12 00:59:38;;;;;;;2.65;2.08;;;;;;;19.52;55.05;101354.26;1662426;84;21050;-48
2021/05/12 01:02:07;;;;;;;4.33;2.10;;;;;;;19.49;55.03;101350.84;1659831;86;21623;-48
2021/05/12 01:04:34;;;;;;;2.37;1.72;;;;;;;19.49;55.04;101352.16;1672215;84;21038;-49
2021/05/12 01:07:00;;;;;;;2.02;1.60;;;;;;;19.49;55.02;101352.16;1676914;83;21075;-50
2021/05/12 01:09:26;;;;;;;4.55;1.95;;;;;;;19.49;55.08;101354.80;1721186;81;21098;-50
2021/05/12 01:11:53;;;;;;;3.70;2.15;;;;;;;19.46;55.17;101349.69;1735631;81;21610;-48
2021/05/12 01:14:19;;;;;;;2.87;2.08;;;;;;;19.43;55.28;101345.86;1718890;81;21047;-48
2021/05/12 01:16:47;;;;;;;2.85;2.30;;;;;;;19.41;55.36;101350.36;1747413;80;21123;-47
2021/05/12 01:19:14;;;;;;;4.03;2.10;;;;;;;19.38;55.45;101347.89;1757100;80;21043;-47
2021/05/12 01:21:41;;;;;;;3.65;1.90;;;;;;;19.36;55.57;101335.69;1704237;83;21038;-48
2021/05/12 01:24:08;;;;;;;2.25;2.00;;;;;;;19.33;55.65;101347.24;1682125;83;21095;-47
2021/05/12 01:26:34;;;;;;;1.85;1.50;;;;;;;19.29;55.80;101343.02;1675254;83;21563;-48
2021/05/12 01:29:01;;;;;;;3.55;1.50;;;;;;;19.27;55.86;101350.15;1686671;83;21011;-51
2021/05/12 01:31:42;;;;;;;1.98;1.87;;;;;;;19.26;55.97;101341.86;1684535;83;21019;-49
2021/05/12 01:34:15;;;;;;;2.20;2.00;;;;;;;19.24;56.15;101335.80;1671394;83;21121;-47
2021/05/12 01:36:41;;;;;;;1.75;1.65;;;;;;;19.23;56.24;101328.80;1684206;83;21619;-53
2021/05/12 01:39:08;;;;;;;4.33;1.80;;;;;;;19.21;56.36;101333.30;1679811;83;21082;-47
2021/05/12 01:41:34;;;;;;;3.67;1.80;;;;;;;19.19;56.56;101329.88;1681468;83;21074;-47
2021/05/12 01:44:05;;;;;;;2.12;1.82;;;;;;;19.19;56.73;101323.28;1679477;84;21095;-50
2021/05/12 01:46:31;;;;;;;1.75;1.65;;;;;;;19.20;56.84;101325.46;1709892;82;21127;-49
2021/05/12 01:48:58;;;;;;;4.42;2.00;;;;;;;19.20;56.89;101322.37;1739540;82;21571;-49
2021/05/12 01:51:24;;;;;;;3.05;1.70;;;;;;;19.21;56.95;101327.16;1741528;81;21072;-53
2021/05/12 01:53:50;;;;;;;2.33;2.10;;;;;;;19.19;57.01;101327.69;1752373;81;21020;-49
2021/05/12 01:56:16;;;;;;;2.75;1.87;;;;;;;19.18;57.07;101335.23;1737937;82;21135;-47
2021/05/12 01:58:43;;;;;;;2.45;1.60;;;;;;;19.11;57.22;101334.66;1750180;81;21032;-53
2021/05/12 02:01:09;;;;;;;2.33;2.12;;;;;;;19.05;57.41;101328.82;1746870;81;21048;-49
2021/05/12 02:03:36;;;;;;;3.65;2.30;;;;;;;18.98;57.70;101330.89;1747019;81;21092;-48
2021/05/12 02:06:02;;;;;;;3.05;2.27;;;;;;;18.91;58.01;101331.26;1754291;81;21056;-48
2021/05/12 02:08:29;;;;;;;3.72;2.77;;;;;;;18.88;58.25;101340.62;1739201;81;21121;-48
2021/05/12 02:11:02;;;;;;;3.12;2.47;;;;;;;18.86;58.39;101335.88;1746863;81;21123;-48
2021/05/12 02:13:30;;;;;;;2.70;2.50;;;;;;;18.85;58.53;101332.41;1744436;81;21016;-48
2021/05/12 02:15:58;;;;;;;2.90;2.70;;;;;;;18.81;58.64;101332.16;1752033;81;21051;-51
2021/05/12 02:18:25;;;;;;;3.27;2.83;;;;;;;18.79;58.71;101329.20;1756865;81;21085;-48
2021/05/12 02:20:51;;;;;;;4.62;3.42;;;;;;;18.75;58.78;101327.17;1749569;81;21036;-48
2021/05/12 02:23:19;;;;;;;2.95;2.72;;;;;;;19.06;57.94;101329.23;1736724;81;21028;-52
2021/05/12 02:25:46;;;;;;;4.80;3.12;;;;;;;19.11;57.67;101328.07;1748081;81;21024;-47
2021/05/12 02:28:12;;;;;;;3.87;3.52;;;;;;;19.15;57.56;101323.50;1731506;81;21056;-50
2021/05/12 02:30:39;;;;;;;3.47;3.17;;;;;;;19.19;57.46;101321.09;1753794;81;21518;-50
2021/05/12 02:33:06;;;;;;;4.17;3.10;;;;;;;19.22;57.28;101319.64;1741546;81;21135;-47
2021/05/12 02:35:32;;;;;;;3.45;2.80;;;;;;;19.22;57.14;101328.87;1762894;81;21038;-47
2021/05/12 02:37:59;;;;;;;3.62;2.95;;;;;;;19.19;57.18;101329.88;1757925;81;21768;-50
2021/05/12 02:40:25;;;;;;;4.95;2.60;;;;;;;19.18;57.21;101326.86;1756615;81;21116;-48
2021/05/12 02:42:53;;;;;;;2.30;1.82;;;;;;;19.19;56.91;101321.95;1759119;81;21631;-49
2021/05/12 02:45:19;;;;;;;4.87;1.80;;;;;;;19.19;56.14;101323.28;1754771;81;21093;-47
2021/05/12 02:47:57;;;;;;;3.17;2.02;;;;;;;19.17;55.44;101323.81;1694281;84;21149;-47
2021/05/12 02:50:15;;;;;;;1.52;1.22;;;;;;;19.13;54.62;101323.58;1683757;84;21082;-48
2021/05/12 02:52:42;;;;;;;3.72;1.70;;;;;;;19.12;54.35;101325.84;1672856;84;21155;-47
2021/05/12 02:55:10;;;;;;;1.70;1.17;;;;;;;19.11;54.09;101328.07;1672483;84;21616;-51
2021/05/12 02:57:37;;;;;;;3.65;2.00;;;;;;;19.08;53.84;101333.48;1672690;84;21236;-50
2021/05/12 03:00:05;;;;;;;1.75;1.35;;;;;;;19.07;53.46;101330.47;1682635;83;21027;-48
2021/05/12 03:02:32;;;;;;;2.58;2.00;;;;;;;19.05;53.27;101321.77;1679900;85;21062;-52
2021/05/12 03:04:59;;;;;;;4.17;1.60;;;;;;;19.05;52.97;101319.13;1649370;86;21155;-46
2021/05/12 03:07:26;;;;;;;2.25;1.70;;;;;;;19.05;52.81;101315.17;1625486;86;21650;-48
2021/05/12 03:09:53;;;;;;;2.95;1.77;;;;;;;19.05;52.72;101319.13;1624609;86;21218;-49
2021/05/12 03:12:20;;;;;;;3.08;1.62;;;;;;;19.05;52.01;101323.55;1652333;83;21124;-52
2021/05/12 03:14:46;;;;;;;3.42;1.80;;;;;;;19.04;51.80;101326.64;1681189;83;21163;-48
2021/05/12 03:17:13;;;;;;;5.75;1.67;;;;;;;19.02;51.42;101331.13;1657128;85;21642;-51
2021/05/12 03:19:40;;;;;;;6.17;1.75;;;;;;;18.98;51.35;101328.25;1649154;85;21722;-49
2021/05/12 03:22:07;;;;;;;2.85;1.35;;;;;;;18.94;51.44;101324.05;1646990;86;21041;-51
2021/05/12 03:24:34;;;;;;;3.55;1.60;;;;;;;18.93;51.38;101325.45;1646585;85;21116;-51
2021/05/12 03:27:00;;;;;;;1.70;1.10;;;;;;;18.94;51.67;101331.13;1653661;85;21132;-53
2021/05/12 03:29:27;;;;;;;3.58;1.45;;;;;;;18.95;51.85;101328.87;1643158;85;21025;-48
2021/05/12 03:31:54;;;;;;;4.75;1.35;;;;;;;18.95;51.93;101328.87;1674058;85;21141;-48
2021/05/12 03:34:21;;;;;;;1.90;1.72;;;;;;;18.96;51.97;101330.11;1649581;85;21002;-48
2021/05/12 03:36:47;;;;;;;3.77;1.90;;;;;;;18.96;52.01;101330.11;1647979;85;21116;-48
2021/05/12 03:39:14;;;;;;;2.20;1.60;;;;;;;18.94;51.58;101325.86;1656987;85;21151;-47
2021/05/12 03:41:41;;;;;;;2.22;1.40;;;;;;;18.93;51.24;101322.36;1666522;83;20986;-48
2021/05/12 03:44:08;;;;;;;2.47;1.62;;;;;;;18.96;50.95;101316.92;1709303;83;21080;-48
2021/05/12 03:46:35;;;;;;;1.98;1.30;;;;;;;18.99;50.55;101335.25;1635394;86;21076;-48
2021/05/12 03:49:03;;;;;;;4.62;1.10;;;;;;;19.02;50.35;101340.36;1682180;85;21053;-47
2021/05/12 03:51:30;;;;;;;1.67;1.35;;;;;;;19.05;50.31;101347.28;1692947;85;21056;-47
2021/05/12 03:53:57;;;;;;;1.95;1.30;;;;;;;19.06;50.44;101343.25;1668969;85;21595;-48
2021/05/12 03:56:24;;;;;;;4.58;2.05;;;;;;;19.04;50.54;101329.28;1664508;85;21052;-47
2021/05/12 03:58:50;;;;;;;2.10;1.30;;;;;;;19.04;50.49;101337.19;1669085;85;21013;-48
2021/05/12 04:01:17;;;;;;;2.98;1.50;;;;;;;19.05;50.02;101334.96;1683138;83;21111;-52
2021/05/12 04:03:44;;;;;;;2.85;1.60;;;;;;;19.07;50.02;101330.47;1655835;85;21534;-51
2021/05/12 04:06:11;;;;;;;4.25;1.75;;;;;;;19.09;50.16;101325.11;1689166;83;21139;-53
2021/05/12 04:08:38;;;;;;;3.77;1.92;;;;;;;19.10;50.27;101330.30;1710725;83;21075;-47
2021/05/12 04:11:04;;;;;;;2.08;1.50;;;;;;;19.16;50.27;101334.45;1692238;83;21071;-48
2021/05/12 04:13:31;;;;;;;2.92;1.62;;;;;;;19.17;50.25;101326.45;1657362;86;21095;-47
2021/05/12 04:15:58;;;;;;;4.03;1.40;;;;;;;19.22;50.24;101327.56;1634870;86;21590;-50
2021/05/12 04:18:27;;;;;;;2.20;1.37;;;;;;;19.31;50.15;101325.78;1635039;86;21091;-52
2021/05/12 04:20:53;;;;;;;2.40;1.55;;;;;;;19.42;50.22;101328.80;1635082;86;21024;-53
2021/05/12 04:23:20;;;;;;;2.95;1.82;;;;;;;19.53;50.02;101324.31;1646386;86;21575;-47
2021/05/12 04:25:47;;;;;;;1.92;1.45;;;;;;;19.64;49.69;101323.32;1608010;88;21106;-52
2021/05/12 04:28:14;;;;;;;2.02;1.87;;;;;;;19.74;49.19;101314.00;1634909;86;21049;-50
2021/05/12 04:30:40;;;;;;;2.87;1.65;;;;;;;19.86;48.88;101319.98;1606806;88;21043;-48
2021/05/12 04:33:07;;;;;;;3.12;1.80;;;;;;;19.96;48.60;101315.92;1607800;88;21656;-48
2021/05/12 04:35:34;;;;;;;5.00;2.55;;;;;;;20.05;48.41;101319.42;1634964;86;21063;-47
2021/05/12 04:38:01;;;;;;;3.47;1.80;;;;;;;20.11;48.14;101323.90;1635079;86;21067;-48
2021/05/12 04:40:28;;;;;;;4.17;1.60;;;;;;;20.16;47.96;101322.34;1608179;88;21111;-48
2021/05/12 04:42:54;;;;;;;2.72;1.70;;;;;;;20.15;47.57;101325.94;1633165;86;21746;-53
2021/05/12 04:45:21;;;;;;;3.42;1.82;;;;;;;20.15;47.48;101337.83;1673126;83;21140;-51
2021/05/12 04:47:55;;;;;;;4.35;1.77;;;;;;;20.13;47.52;101337.88;1729244;82;21068;-48
2021/05/12 04:50:19;;;;;;;2.85;1.70;;;;;;;20.10;47.63;101346.45;1705429;83;21035;-51
2021/05/12 04:52:46;;;;;;;3.12;1.75;;;;;;;20.08;47.46;101344.34;1718952;83;21031;-47
2021/05/12 04:55:13;;;;;;;3.30;2.00;;;;;;;20.07;47.46;101349.27;1743484;81;21127;-49
2021/05/12 04:57:40;;;;;;;4.72;1.87;;;;;;;20.06;47.53;101347.54;1747241;81;21040;-50
2021/05/12 05:00:09;;;;;;;3.25;2.12;;;;;;;20.06;47.80;101356.33;1734786;81;21072;-48
2021/05/12 05:02:35;;;;;;;3.75;2.15;;;;;;;20.10;47.76;101359.66;1753386;81;21028;-53
2021/05/12 05:05:02;;;;;;;2.95;1.90;;;;;;;20.13;47.54;101364.80;1745907;81;21141;-48
2021/05/12 05:07:29;;;;;;;6.33;2.02;;;;;;;20.15;47.31;101360.28;1735451;81;21024;-47
2021/05/12 05:09:55;;;;;;;4.72;2.40;;;;;;;20.16;47.30;101365.94;1746428;82;21020;-47
2021/05/12 05:12:22;;;;;;;5.40;2.37;;;;;;;20.18;47.08;101370.68;1735997;82;21123;-50
2021/05/12 05:14:48;;;;;;;3.58;2.02;;;;;;;20.21;46.78;101367.93;1744471;81;21114;-52
2021/05/12 05:17:15;;;;;;;7.70;1.95;;;;;;;20.23;45.51;101366.06;1748500;81;21047;-48
2021/05/12 05:19:42;;;;;;;5.08;1.95;;;;;;;20.19;44.41;101371.98;1739252;81;21052;-48
2021/05/12 05:22:11;;;;;;;5.83;2.08;;;;;;;20.17;43.95;101372.46;1754414;81;21072;-48
2021/05/12 05:24:37;;;;;;;4.22;1.65;;;;;;;20.13;43.62;101368.27;1737378;81;21064;-52
2021/05/12 05:27:05;;;;;;;6.85;1.92;;;;;;;20.07;43.49;101370.40;1751623;81;21056;-47
2021/05/12 05:29:31;;;;;;;9.53;2.35;;;;;;;20.03;43.70;101374.12;1747461;81;21110;-48
2021/05/12 05:31:58;;;;;;;5.00;1.60;;;;;;;20.01;43.45;101370.71;1741628;81;21178;-47
2021/05/12 05:34:42;;;;;;;3.80;1.60;;;;;;;19.99;42.81;101373.41;1753977;81;21044;-47
2021/05/12 05:37:23;;;;;;;3.92;1.70;;;;;;;19.98;42.54;101376.14;1645220;84;21642;-48
2021/05/12 05:40:09;;;;;;;2.98;1.47;;;;;;;19.91;42.19;101374.72;1662202;85;21056;-47
2021/05/12 05:42:58;;;;;;;3.92;1.67;;;;;;;19.87;42.68;101370.07;1662091;85;21043;-47
2021/05/12 05:45:43;;;;;;;5.58;1.85;;;;;;;19.86;43.00;101371.48;1630668;86;21114;-54
2021/05/12 05:48:28;;;;;;;10.98;1.92;;;;;;;19.82;43.67;101373.42;1626547;87;21118;-47
2021/05/12 05:51:13;;;;;;;4.85;1.80;;;;;;;19.83;43.96;101379.08;1613616;87;21589;-51
2021/05/12 05:53:58;;;;;;;4.28;1.30;;;;;;;19.85;42.50;101380.31;1620183;87;21674;-48
2021/05/12 05:56:43;;;;;;;3.40;1.40;;;;;;;19.88;42.37;101374.89;1625370;87;21135;-47
2021/05/12 05:59:29;;;;;;;2.77;1.07;;;;;;;19.90;41.79;101373.03;1624307;87;21124;-49
2021/05/12 06:07:33;;;;;;;5.55;1.10;;;;;;;19.64;42.59;101387.52;1726473;82;21072;-50
2021/05/12 06:10:14;;;;;;;2.35;1.17;;;;;;;19.77;42.19;101385.13;1619460;84;21127;-50
2021/05/12 06:12:59;;;;;;;3.52;1.47;;;;;;;19.78;42.18;101378.93;1688004;82;21082;-50
2021/05/12 06:15:44;;;;;;;2.35;1.00;;;;;;;19.77;42.43;101377.20;1692567;83;21074;-50
2021/05/12 06:18:29;;;;;;;2.25;0.90;;;;;;;19.75;42.20;101377.29;1722978;82;21067;-50
2021/05/12 06:21:15;;;;;;;3.30;1.12;;;;;;;19.73;42.14;101373.01;1713496;82;21692;-49
2021/05/12 06:24:00;;;;;;;4.05;1.27;;;;;;;19.68;42.37;101372.41;1730101;81;21044;-49
2021/05/12 06:26:48;;;;;;;3.22;1.10;;;;;;;19.63;42.51;101365.16;1662901;84;21602;-48
2021/05/12 06:29:34;;;;;;;1.35;1.00;;;;;;;19.54;42.84;101374.87;1641205;85;21182;-48
2021/05/12 06:32:19;;;;;;;2.08;0.88;;;;;;;19.47;43.26;101375.13;1645264;84;21127;-49
2021/05/12 06:34:50;;;;;;;5.42;1.30;;;;;;;19.38;43.27;101363.73;1616614;88;21081;-48
2021/05/12 06:37:35;;;;;;;3.08;1.12;;;;;;;19.33;43.49;101374.95;1577126;89;21049;-48
2021/05/12 06:40:19;;;;;;;3.02;1.15;;;;;;;19.26;43.87;101373.52;1592095;88;21077;-47
2021/05/12 06:42:46;;;;;;;3.30;1.22;;;;;;;19.21;44.30;101379.47;1577788;88;21079;-48
2021/05/12 06:45:14;;;;;;;1.82;1.17;;;;;;;19.17;44.44;101381.86;1581400;88;21040;-48
2021/05/12 06:47:41;;;;;;;1.50;1.02;;;;;;;19.14;44.30;101376.74;1597421;88;21020;-47
2021/05/12 06:50:09;;;;;;;3.65;1.22;;;;;;;19.13;44.54;101382.93;1594404;88;21058;-47
2021/05/12 06:52:36;;;;;;;3.42;1.60;;;;;;;19.12;44.59;101380.38;1591646;88;21078;-48
2021/05/12 06:55:03;;;;;;;1.37;1.05;;;;;;;19.11;44.71;101376.88;1606574;88;21059;-48
2021/05/12 06:57:30;;;;;;;4.60;1.10;;;;;;;19.12;44.96;101381.70;1609535;85;21069;-48
2021/05/12 06:59:56;;;;;;;2.50;1.10;;;;;;;19.12;44.97;101374.64;1675933;83;21062;-48
2021/05/12 07:02:23;;;;;;;2.65;1.15;;;;;;;19.14;44.96;101384.66;1685966;83;21075;-49
2021/05/12 07:04:49;;;;;;;1.82;1.02;;;;;;;19.17;44.76;101385.81;1689816;83;21059;-49
2021/05/12 07:07:16;;;;;;;2.55;0.80;;;;;;;19.22;44.93;101390.88;1687502;83;21173;-49
2021/05/12 07:09:43;;;;;;;4.65;1.27;;;;;;;19.24;44.86;101383.30;1693476;84;21068;-49
2021/05/12 07:12:10;;;;;;;3.22;1.05;;;;;;;19.29;45.08;101390.96;1707193;80;21054;-49
2021/05/12 07:14:37;;;;;;;2.58;1.20;;;;;;;19.32;45.23;101390.38;1751255;79;21050;-49
2021/05/12 07:17:04;;;;;;;4.35;1.85;;;;;;;19.33;45.97;101377.59;1707961;82;21050;-49
2021/05/12 07:19:31;;;;;;;4.35;2.30;;;;;;;19.33;46.95;101379.36;1682314;82;21672;-49
2021/05/12 07:21:57;;;;;;;7.62;3.25;;;;;;;19.32;47.92;101375.86;1697779;82;21068;-49
2021/05/12 07:24:24;;;;;;;6.15;3.55;;;;;;;19.31;48.74;101393.93;1681569;83;21610;-49
2021/05/12 07:26:51;;;;;;;4.65;4.03;;;;;;;19.30;49.34;101397.97;1748351;78;21183;-50
2021/05/12 07:29:17;;;;;;;8.78;4.00;;;;;;;19.25;49.48;101400.82;1747067;80;21020;-49
2021/05/12 07:31:44;;;;;;;6.72;3.45;;;;;;;19.17;49.70;101399.00;1733167;80;21080;-50
2021/05/12 07:34:11;;;;;;;4.00;2.67;;;;;;;19.12;49.63;101404.12;1754297;79;21128;-49
2021/05/12 07:36:38;;;;;;;2.65;2.27;;;;;;;19.07;49.23;101402.14;1705235;83;21016;-49
2021/05/12 07:39:07;;;;;;;4.35;3.67;;;;;;;19.06;48.87;101407.04;1723817;81;21781;-49
2021/05/12 07:41:35;;;;;;;3.80;2.90;;;;;;;19.06;48.74;101401.28;1648969;85;21589;-49
2021/05/12 07:44:05;;;;;;;3.98;3.50;;;;;;;19.07;48.66;101403.00;1641600;86;21024;-49
2021/05/12 07:46:32;;;;;;;5.67;3.20;;;;;;;19.05;48.32;101394.31;1655841;86;21745;-48
2021/05/12 07:48:59;;;;;;;3.17;2.75;;;;;;;19.03;48.21;101385.61;1651824;86;21103;-49
2021/05/12 07:51:25;;;;;;;3.47;2.10;;;;;;;19.04;48.42;101385.16;1659155;86;21083;-48
2021/05/12 07:53:53;;;;;;;2.85;2.65;;;;;;;19.04;48.96;101387.30;1659093;86;21083;-50
2021/05/12 07:56:20;;;;;;;3.45;3.15;;;;;;;19.06;48.88;101390.73;1630213;88;21064;-49
2021/05/12 07:58:46;;;;;;;6.30;3.50;;;;;;;19.08;48.77;101392.83;1608970;88;21095;-49
2021/05/12 08:03:47;;;;;;;5.65;3.02;;;;;;;19.07;48.68;101400.37;1598720;88;21099;-49
2021/05/12 08:06:14;;;;;;;4.65;3.08;;;;;;;19.09;48.69;101405.11;1588708;89;21120;-49
2021/05/12 08:08:41;;;;;;;4.65;3.77;;;;;;;19.11;49.05;101407.20;1589343;89;21108;-49
2021/05/12 08:11:07;;;;;;;3.67;3.37;;;;;;;19.16;48.66;101406.55;1582956;89;21086;-48
2021/05/12 08:13:34;;;;;;;4.92;2.80;;;;;;;19.19;48.13;101399.79;1559097;90;21125;-49
2021/05/12 08:16:00;;;;;;;5.35;3.75;;;;;;;19.21;47.94;101393.98;1565639;90;21124;-48
2021/05/12 08:18:27;;;;;;;4.45;3.30;;;;;;;19.24;47.26;101388.57;1577959;89;21114;-49
2021/05/12 08:20:55;;;;;;;4.80;3.00;;;;;;;19.24;47.13;101391.20;1582532;88;21113;-49
2021/05/12 08:23:23;;;;;;;6.90;3.20;;;;;;;19.25;47.27;101395.55;1586707;86;21089;-49
2021/05/12 08:25:51;;;;;;;4.45;4.05;;;;;;;19.23;47.34;101400.03;1593563;88;21077;-50
2021/05/12 08:28:17;;;;;;;5.05;4.55;;;;;;;19.21;47.31;101405.85;1604463;88;21100;-48
2021/05/12 08:30:46;;;;;;;4.12;3.58;;;;;;;19.17;46.97;101406.92;1630383;86;21691;-49
2021/05/12 08:33:14;;;;;;;4.15;3.75;;;;;;;19.15;47.02;101405.27;1619485;86;21077;-48
2021/05/12 08:35:44;;;;;;;6.28;3.10;;;;;;;19.12;46.44;101401.48;1625757;86;21133;-50
2021/05/12 08:38:15;;;;;;;4.15;3.47;;;;;;;19.08;46.47;101398.11;1636204;84;21051;-49
2021/05/12 08:40:43;;;;;;;5.08;4.58;;;;;;;19.10;46.49;101396.25;1680307;85;21649;-49
2021/05/12 08:43:10;;;;;;;5.42;4.50;;;;;;;19.10;46.47;101390.97;1672213;84;21646;-48
2021/05/12 08:45:37;;;;;;;5.25;4.22;;;;;;;19.11;46.25;101383.47;1618447;86;21621;-49
2021/05/12 08:48:10;;;;;;;4.25;3.87;;;;;;;19.13;46.07;101380.30;1631727;85;21598;-49
2021/05/12 08:50:34;;;;;;;5.00;4.30;;;;;;;19.16;46.01;101372.25;1653485;84;21099;-49
2021/05/12 08:53:00;;;;;;;5.22;4.10;;;;;;;19.21;46.16;101368.91;1633368;87;21139;-49
2021/05/12 08:55:27;;;;;;;2.92;2.52;;;;;;;19.24;46.09;101368.78;1624973;86;21179;-48
2021/05/12 08:57:54;;;;;;;4.83;3.50;;;;;;;19.27;45.68;101380.49;1639584;85;21074;-49
2021/05/12 09:00:21;;;;;;;5.00;4.50;;;;;;;19.28;45.51;101379.58;1711938;80;21075;-48
2021/05/12 09:02:48;;;;;;;6.83;4.22;;;;;;;19.26;45.41;101389.35;1700602;82;21125;-49
2021/05/12 09:05:14;;;;;;;5.55;3.37;;;;;;;19.25;45.41;101396.86;1695241;82;21073;-48
2021/05/12 09:07:41;;;;;;;7.12;2.67;;;;;;;19.23;45.08;101400.03;1702460;83;21115;-49
2021/05/12 09:10:09;;;;;;;5.65;2.98;;;;;;;19.22;44.99;101391.74;1694378;82;21064;-49
2021/05/12 09:12:47;;;;;;;2.72;2.47;;;;;;;19.23;45.00;101383.34;1742096;80;21114;-49
2021/05/12 09:15:18;;;;;;;2.87;2.58;;;;;;;19.23;44.85;101392.12;1758870;79;21114;-49
2021/05/12 09:25:17;;;;;;;4.35;2.72;;;;;;;19.23;44.79;101394.76;1634697;84;21712;-51
2021/05/12 09:27:42;;;;;;;4.37;2.77;;;;;;;19.28;44.78;101399.37;1663341;84;21051;-48
2021/05/12 09:30:10;;;;;;;4.60;3.27;;;;;;;19.31;44.75;101395.25;1661003;84;21039;-49
2021/05/12 09:32:45;;;;;;;8.58;3.77;;;;;;;19.36;44.73;101403.84;1637729;84;21075;-49
2021/05/12 09:35:14;;;;;;;3.77;2.90;;;;;;;19.40;44.87;101396.17;1632209;86;21090;-48
2021/05/12 09:37:44;;;;;;;5.75;3.00;;;;;;;19.45;44.55;101394.16;1630874;86;21089;-49
2021/05/12 09:40:13;;;;;;;4.35;2.85;;;;;;;19.51;43.80;101389.52;1669874;85;21076;-49
2021/05/12 09:42:41;;;;;;;5.62;2.60;;;;;;;19.54;43.44;101392.03;1676511;82;21111;-50
2021/05/12 09:45:20;;;;;;;4.03;2.60;;;;;;;19.58;43.42;101396.23;1666523;82;21160;-50
2021/05/12 09:47:50;;;;;;;4.78;2.17;;;;;;;19.62;43.07;101389.87;1664441;85;21768;-50
2021/05/12 09:52:53;;;;;;;5.47;2.58;;;;;;;19.66;42.48;101388.78;1592625;88;21152;-51
2021/05/12 09:55:19;;;;;;;2.60;2.05;;;;;;;19.62;42.55;101388.55;1554869;91;21129;-50
2021/05/12 09:58:09;;;;;;;2.58;2.22;;;;;;;19.28;43.40;101389.27;1581886;88;21117;-48
2021/05/12 10:00:45;;;;;;;3.08;2.00;;;;;;;19.21;43.60;101388.70;1543324;91;21124;-48
2021/05/12 10:03:13;;;;;;;3.60;2.40;;;;;;;19.17;43.58;101392.41;1494215;93;21135;-48
2021/05/12 10:06:02;;;;;;;4.08;2.50;;;;;;;19.17;43.48;101391.09;1496112;95;21179;-50
2021/05/12 10:08:36;;;;;;;2.25;1.70;;;;;;;19.19;43.52;101383.09;1506362;94;21146;-51
2021/05/12 10:11:07;;;;;;;2.52;2.10;;;;;;;19.19;43.52;101380.00;1473760;96;21145;-50
2021/05/12 10:13:35;;;;;;;2.05;1.90;;;;;;;19.20;43.74;101377.77;1500402;95;21101;-49
2021/05/12 10:16:05;;;;;;;3.47;2.00;;;;;;;19.22;43.42;101369.31;1472762;95;21182;-48
2021/05/12 10:18:31;;;;;;;2.62;2.30;;;;;;;19.24;43.08;101360.87;1467943;96;21158;-49
2021/05/12 10:20:59;;;;;;;2.58;2.20;;;;;;;19.24;42.71;101362.19;1477322;96;21128;-49
2021/05/12 10:23:27;;;;;;;2.37;1.75;;;;;;;19.27;42.51;101364.66;1438754;98;21117;-49
2021/05/12 10:25:54;;;;;;;2.27;2.00;;;;;;;19.26;42.68;101364.28;1461826;96;21746;-49
2021/05/12 10:28:21;;;;;;;1.92;1.67;;;;;;;19.25;42.34;101366.52;1429003;99;21144;-48
2021/05/12 10:30:50;;;;;;;1.85;1.75;;;;;;;19.24;42.32;101363.95;1464027;96;21171;-49
2021/05/12 10:33:19;;;;;;;3.10;1.95;;;;;;;19.23;42.35;101365.73;1513578;93;21163;-49
2021/05/12 10:35:46;;;;;;;4.30;1.90;;;;;;;19.24;42.34;101364.82;1508463;93;21128;-50
2021/05/12 10:38:32;;;;;;;1.75;1.65;;;;;;;19.22;42.90;101365.81;1513793;93;21149;-49
2021/05/12 10:40:59;;;;;;;3.52;1.77;;;;;;;19.19;42.94;101369.45;1495120;93;21704;-49
2021/05/12 10:43:39;;;;;;;3.25;2.05;;;;;;;19.43;41.96;101365.66;1526880;93;21216;-49
2021/05/12 10:46:13;;;;;;;2.65;2.10;;;;;;;19.54;41.85;101370.42;1514195;93;21170;-49
2021/05/12 10:48:48;;;;;;;2.52;2.15;;;;;;;19.59;42.21;101374.16;1493670;90;21669;-48
2021/05/12 10:51:33;;;;;;;3.77;2.20;;;;;;;19.65;42.13;101373.86;1563048;89;21078;-49
2021/05/12 10:54:03;;;;;;;4.40;2.10;;;;;;;19.70;42.21;101371.86;1628440;87;21113;-49
2021/05/12 10:56:39;;;;;;;4.37;2.17;;;;;;;19.77;41.88;101371.92;1622818;87;21687;-48
2021/05/12 10:59:07;;;;;;;2.47;1.87;;;;;;;19.85;41.74;101364.47;1617438;79;21067;-49
2021/05/12 11:01:49;;;;;;;3.22;1.82;;;;;;;19.92;41.94;101365.88;1739954;80;21100;-49
2021/05/12 11:04:21;;;;;;;2.58;2.35;;;;;;;19.96;41.49;101362.16;1684686;82;21092;-49
2021/05/12 11:06:56;;;;;;;5.62;2.02;;;;;;;20.02;41.42;101363.16;1705434;80;21083;-49
2021/05/12 11:09:44;;;;;;;2.27;2.02;;;;;;;20.07;41.74;101365.11;1731523;81;21084;-50
2021/05/12 11:12:21;;;;;;;6.47;2.08;;;;;;;20.12;42.20;101365.71;1688134;83;21084;-48
2021/05/12 11:14:58;;;;;;;3.98;2.17;;;;;;;20.16;42.03;101363.30;1714004;82;21092;-49
2021/05/12 11:17:41;;;;;;;4.35;2.00;;;;;;;20.17;41.41;101368.98;1695921;83;21749;-49
2021/05/12 11:20:20;;;;;;;3.50;2.35;;;;;;;20.19;41.23;101369.77;1675137;83;21054;-48
2021/05/12 11:22:47;;;;;;;3.05;2.60;;;;;;;20.19;41.38;101366.70;1682172;83;21071;-49
2021/05/12 11:33:39;;;;;;;3.55;2.10;;;;;;;20.25;41.13;101372.12;1616171;86;21083;-48
2021/05/12 11:38:42;;;;;;;3.35;2.10;;;;;;;20.23;41.42;101363.42;1552195;92;21657;-48
2021/05/12 11:41:17;;;;;;;4.15;2.45;;;;;;;20.23;41.15;101362.09;1527016;92;21636;-48
2021/05/12 11:43:54;;;;;;;5.55;2.33;;;;;;;20.22;40.93;101359.05;1546380;92;21138;-49
2021/05/12 11:46:42;;;;;;;3.33;2.00;;;;;;;20.22;40.90;101361.69;1525558;92;21245;-49
2021/05/12 11:49:10;;;;;;;3.65;2.15;;;;;;;20.22;41.09;101360.38;1522138;92;21139;-49
2021/05/12 11:51:42;;;;;;;4.50;2.52;;;;;;;20.21;40.93;101367.47;1537007;92;21115;-49
2021/05/12 11:54:23;;;;;;;3.10;2.20;;;;;;;20.20;40.99;101371.48;1529306;91;21113;-49
2021/05/12 11:56:58;;;;;;;2.65;2.27;;;;;;;20.22;40.75;101372.27;1559756;91;21139;-49
2021/05/12 11:59:27;;;;;;;2.55;2.17;;;;;;;20.21;40.65;101363.97;1526360;91;21109;-49
2021/05/12 12:02:09;;;;;;;3.05;2.45;;;;;;;20.22;40.93;101365.66;1561735;92;21074;-49
2021/05/12 12:04:39;;;;;;;3.08;2.12;;;;;;;20.23;40.97;101362.09;1589401;88;21085;-49
2021/05/12 12:07:07;;;;;;;7.10;2.75;;;;;;;20.23;40.78;101360.77;1596841;89;21133;-49